createdAt,value
2023-05-10T00:01:53.106Z,12.44
2023-05-10T00:04:20.809Z,12.57
2023-05-10T00:06:48.329Z,12.52
2023-05-10T00:09:15.898Z,12.43
2023-05-10T00:11:43.372Z,12.36
2023-05-10T00:14:12.220Z,12.38
2023-05-10T00:16:40.136Z,12.40
2023-05-10T00:19:07.685Z,12.40
2023-05-10T00:21:35.458Z,12.38
2023-05-10T00:24:02.935Z,12.22
2023-05-10T00:26:30.464Z,12.29
2023-05-10T00:28:59.513Z,12.19
2023-05-10T00:31:28.389Z,12.23
2023-05-10T00:33:56.494Z,12.68
2023-05-10T00:36:23.998Z,12.17
2023-05-10T00:38:51.473Z,12.27
2023-05-10T00:41:18.988Z,12.10
2023-05-10T00:43:46.501Z,12.01
2023-05-10T00:46:14.327Z,11.89
2023-05-10T00:48:43.334Z,11.93
2023-05-10T00:51:10.830Z,11.96
2023-05-10T00:53:38.856Z,11.91
2023-05-10T00:56:06.527Z,11.94
2023-05-10T00:58:34.161Z,12.26
2023-05-10T01:01:02.591Z,11.94
2023-05-10T01:03:30.318Z,11.71
2023-05-10T01:05:59.313Z,11.75
2023-05-10T01:08:27.038Z,11.68
2023-05-10T01:10:54.566Z,11.89
2023-05-10T01:13:33.395Z,11.74
2023-05-10T01:16:02.995Z,11.91
2023-05-10T01:18:32.000Z,11.85
2023-05-10T01:21:08.569Z,12.17
2023-05-10T01:23:46.270Z,11.73
2023-05-10T01:26:41.789Z,11.82
2023-05-10T01:29:40.755Z,11.55
2023-05-10T01:32:24.203Z,11.44
2023-05-10T01:34:57.399Z,11.32
2023-05-10T01:37:33.248Z,11.30
2023-05-10T01:40:06.254Z,11.48
2023-05-10T01:42:39.015Z,11.28
2023-05-10T01:45:18.211Z,11.23
2023-05-10T01:47:49.150Z,11.17
2023-05-10T01:50:19.939Z,11.08
2023-05-10T01:52:53.534Z,11.03
2023-05-10T01:55:23.373Z,10.90
2023-05-10T01:57:54.540Z,10.90
2023-05-10T02:00:22.364Z,10.99
2023-05-10T02:02:51.727Z,11.02
2023-05-10T02:05:19.923Z,11.17
2023-05-10T02:07:47.627Z,10.78
2023-05-10T02:10:15.895Z,10.74
2023-05-10T02:12:45.583Z,10.78
2023-05-10T02:15:15.048Z,10.75
2023-05-10T02:17:44.284Z,10.64
2023-05-10T02:20:13.735Z,10.59
2023-05-10T02:22:41.924Z,10.70
2023-05-10T02:25:10.724Z,10.89
2023-05-10T02:27:38.823Z,10.62
2023-05-10T02:30:08.732Z,10.55
2023-05-10T02:32:36.864Z,10.60
2023-05-10T02:35:05.816Z,10.54
2023-05-10T02:37:35.173Z,10.64
2023-05-10T02:40:04.593Z,10.52
2023-05-10T02:42:34.943Z,10.52
2023-05-10T02:45:03.832Z,10.65
2023-05-10T02:47:31.351Z,11.04
2023-05-10T02:49:58.879Z,11.00
2023-05-10T02:52:28.346Z,10.58
2023-05-10T02:55:01.307Z,10.47
2023-05-10T02:57:35.948Z,10.55
2023-05-10T03:00:04.482Z,10.52
2023-05-10T03:02:32.153Z,10.51
2023-05-10T03:04:59.790Z,10.58
2023-05-10T03:07:27.439Z,10.62
2023-05-10T03:09:54.990Z,10.67
2023-05-10T03:12:31.676Z,10.59
2023-05-10T03:15:03.004Z,10.45
2023-05-10T03:17:32.560Z,10.58
2023-05-10T03:20:03.882Z,10.63
2023-05-10T03:22:33.784Z,10.53
2023-05-10T03:25:02.532Z,10.56
2023-05-10T03:27:32.578Z,10.49
2023-05-10T03:30:00.055Z,10.52
2023-05-10T03:32:28.115Z,10.84
2023-05-10T03:34:55.646Z,10.42
2023-05-10T03:37:23.141Z,10.67
2023-05-10T03:39:50.705Z,10.49
2023-05-10T03:42:18.840Z,10.49
2023-05-10T03:44:47.659Z,10.33
2023-05-10T03:47:15.217Z,10.43
2023-05-10T03:49:42.727Z,10.32
2023-05-10T03:52:10.234Z,10.20
2023-05-10T03:54:37.730Z,10.48
2023-05-10T03:57:05.234Z,10.43
2023-05-10T03:59:32.875Z,10.45
2023-05-10T04:02:01.824Z,10.40
2023-05-10T04:04:29.355Z,10.80
2023-05-10T04:06:56.861Z,10.66
2023-05-10T04:09:24.390Z,10.46
2023-05-10T04:11:52.129Z,10.45
2023-05-10T04:14:19.654Z,10.43
2023-05-10T04:16:47.272Z,10.50
2023-05-10T04:19:16.183Z,10.41
2023-05-10T04:21:43.657Z,10.65
2023-05-10T04:24:11.465Z,10.79
2023-05-10T04:26:39.787Z,10.41
2023-05-10T04:29:07.341Z,10.58
2023-05-10T04:31:35.248Z,10.65
2023-05-10T04:34:02.753Z,10.60
2023-05-10T04:36:33.392Z,10.54
2023-05-10T04:39:00.904Z,10.78
2023-05-10T04:41:28.391Z,10.76
2023-05-10T04:43:55.901Z,10.89
2023-05-10T04:46:23.633Z,11.22
2023-05-10T04:48:51.160Z,11.26
2023-05-10T04:51:18.643Z,11.06
2023-05-10T04:54:01.714Z,11.46
2023-05-10T04:56:32.494Z,11.96
2023-05-10T04:58:59.983Z,11.98
2023-05-10T05:01:27.545Z,12.50
2023-05-10T05:03:55.214Z,12.18
2023-05-10T05:06:22.865Z,12.39
2023-05-10T05:08:51.655Z,12.24
2023-05-10T05:11:19.407Z,11.79
2023-05-10T05:13:47.093Z,11.87
2023-05-10T05:16:14.616Z,12.03
2023-05-10T05:18:42.115Z,12.21
2023-05-10T05:21:16.094Z,12.69
2023-05-10T05:23:43.678Z,12.31
2023-05-10T05:26:12.576Z,12.63
2023-05-10T05:28:40.183Z,13.22
2023-05-10T05:31:08.511Z,13.13
2023-05-10T05:33:36.465Z,12.98
2023-05-10T05:36:04.328Z,13.03
2023-05-10T05:38:31.867Z,12.41
2023-05-10T05:40:59.478Z,12.06
2023-05-10T05:43:28.307Z,12.04
2023-05-10T05:45:55.800Z,12.41
2023-05-10T05:48:23.372Z,12.67
2023-05-10T05:50:51.073Z,12.12
2023-05-10T05:53:18.594Z,12.40
2023-05-10T05:55:53.328Z,12.66
2023-05-10T05:58:20.807Z,12.08
2023-05-10T06:00:49.785Z,12.21
2023-05-10T06:03:17.455Z,12.24
2023-05-10T06:05:45.044Z,12.02
2023-05-10T06:08:12.772Z,11.96
2023-05-10T06:10:40.325Z,12.01
2023-05-10T06:13:07.883Z,11.94
2023-05-10T06:15:35.565Z,11.96
2023-05-10T06:18:04.479Z,12.22
2023-05-10T06:20:32.880Z,12.29
2023-05-10T06:23:00.453Z,12.38
2023-05-10T06:25:27.977Z,12.09
2023-05-10T06:27:58.278Z,12.32
2023-05-10T06:30:28.501Z,12.72
2023-05-10T06:32:56.397Z,13.38
2023-05-10T06:35:25.274Z,12.65
2023-05-10T06:37:53.054Z,13.50
2023-05-10T06:40:20.966Z,13.69
2023-05-10T06:42:48.687Z,13.18
2023-05-10T06:45:16.899Z,13.18
2023-05-10T06:47:44.899Z,13.42
2023-05-10T06:50:13.224Z,13.87
2023-05-10T06:52:42.060Z,13.71
2023-05-10T06:55:10.544Z,13.48
2023-05-10T06:57:38.227Z,13.49
2023-05-10T07:00:07.062Z,14.55
2023-05-10T07:02:34.649Z,14.00
2023-05-10T07:05:03.385Z,14.47
2023-05-10T07:07:31.272Z,14.46
2023-05-10T07:10:00.258Z,14.17
2023-05-10T07:12:27.787Z,13.99
2023-05-10T07:14:55.329Z,14.41
2023-05-10T07:17:22.981Z,14.03
2023-05-10T07:19:50.826Z,14.26
2023-05-10T07:22:18.743Z,15.49
2023-05-10T07:24:46.490Z,15.56
2023-05-10T07:27:15.379Z,15.95
2023-05-10T07:29:43.138Z,16.05
2023-05-10T07:32:10.688Z,14.75
2023-05-10T07:34:38.204Z,14.55
2023-05-10T07:37:07.132Z,15.06
2023-05-10T07:39:34.740Z,14.95
2023-05-10T07:42:02.347Z,15.92
2023-05-10T07:44:31.144Z,14.89
2023-05-10T07:46:58.632Z,15.44
2023-05-10T07:49:26.219Z,15.92
2023-05-10T07:51:53.734Z,15.19
2023-05-10T07:54:21.532Z,14.68
2023-05-10T07:56:49.246Z,16.26
2023-05-10T07:59:17.978Z,16.80
2023-05-10T08:01:47.194Z,15.31
2023-05-10T08:04:14.748Z,15.69
2023-05-10T08:06:42.609Z,16.95
2023-05-10T08:09:10.458Z,16.65
2023-05-10T08:11:38.008Z,16.38
2023-05-10T08:14:05.748Z,16.92
2023-05-10T08:16:33.684Z,17.37
2023-05-10T08:19:02.775Z,16.41
2023-05-10T08:21:32.307Z,15.35
2023-05-10T08:24:00.013Z,15.62
2023-05-10T08:26:27.518Z,17.73
2023-05-10T08:28:55.011Z,17.86
2023-05-10T08:31:22.573Z,17.53
2023-05-10T08:33:50.142Z,17.98
2023-05-10T08:36:22.404Z,16.79
2023-05-10T08:38:52.480Z,18.16
2023-05-10T08:41:22.030Z,18.59
2023-05-10T08:43:49.600Z,18.80
2023-05-10T08:46:18.708Z,18.98
2023-05-10T08:48:46.561Z,18.79
2023-05-10T08:51:17.423Z,17.95
2023-05-10T08:53:46.544Z,18.98
2023-05-10T08:56:14.052Z,18.32
2023-05-10T08:58:41.629Z,19.02
2023-05-10T09:01:09.725Z,19.27
2023-05-10T09:03:37.356Z,18.66
2023-05-10T09:06:06.030Z,19.43
2023-05-10T09:08:33.568Z,19.22
2023-05-10T09:11:03.843Z,18.61
2023-05-10T09:13:31.566Z,18.84
2023-05-10T09:16:04.436Z,18.79
2023-05-10T09:18:41.412Z,18.90
2023-05-10T09:21:09.164Z,17.64
2023-05-10T09:23:36.649Z,18.25
2023-05-10T09:26:06.174Z,18.66
2023-05-10T09:28:34.396Z,18.68
2023-05-10T09:31:01.992Z,19.14
2023-05-10T09:33:29.724Z,18.96
2023-05-10T09:35:57.210Z,18.33
2023-05-10T09:38:24.715Z,18.27
2023-05-10T09:40:56.317Z,18.81
2023-05-10T09:43:25.297Z,18.51
2023-05-10T09:45:54.401Z,17.21
2023-05-10T09:48:26.021Z,17.68
2023-05-10T09:50:58.670Z,18.52
2023-05-10T09:53:26.191Z,18.20
2023-05-10T09:55:53.686Z,18.58
2023-05-10T09:58:21.201Z,18.23
2023-05-10T10:00:52.489Z,16.94
2023-05-10T10:03:21.513Z,17.02
2023-05-10T10:05:50.010Z,17.14
2023-05-10T10:08:18.567Z,17.32
2023-05-10T10:10:47.120Z,18.24
2023-05-10T10:13:15.256Z,18.23
2023-05-10T10:15:44.101Z,17.55
2023-05-10T10:18:16.175Z,17.68
2023-05-10T10:20:44.144Z,16.75
2023-05-10T10:23:11.718Z,18.16
2023-05-10T10:25:40.329Z,18.31
2023-05-10T10:28:29.387Z,18.06
2023-05-10T10:30:57.984Z,18.17
2023-05-10T10:33:41.742Z,17.81
2023-05-10T10:36:09.552Z,16.81
2023-05-10T10:39:00.309Z,17.23
2023-05-10T10:41:35.725Z,17.44
2023-05-10T10:44:25.006Z,17.93
2023-05-10T10:47:09.678Z,17.57
2023-05-10T10:49:46.248Z,17.09
2023-05-10T10:52:22.898Z,17.69
2023-05-10T10:54:54.334Z,17.22
2023-05-10T10:57:23.853Z,17.78
2023-05-10T10:59:51.913Z,17.52
2023-05-10T11:02:36.674Z,17.92
2023-05-10T11:05:46.582Z,16.89
2023-05-10T11:08:21.119Z,17.66
2023-05-10T11:11:14.047Z,17.73
2023-05-10T11:13:44.154Z,17.31
2023-05-10T11:16:14.432Z,17.73
2023-05-10T11:18:54.321Z,17.19
2023-05-10T11:21:22.512Z,17.70
2023-05-10T11:23:53.269Z,17.73
2023-05-10T11:26:24.332Z,17.80
2023-05-10T11:28:52.725Z,17.64
2023-05-10T11:31:21.934Z,17.55
2023-05-10T11:33:53.431Z,16.98
2023-05-10T11:36:25.478Z,16.36
2023-05-10T11:38:55.682Z,17.32
2023-05-10T11:41:25.313Z,16.21
2023-05-10T11:43:55.711Z,17.31
2023-05-10T11:46:27.163Z,16.98
2023-05-10T11:49:05.308Z,16.54
2023-05-10T11:51:36.659Z,16.65
2023-05-10T11:54:08.124Z,15.87
2023-05-10T11:56:35.632Z,16.45
2023-05-10T11:59:03.590Z,16.77
2023-05-10T12:01:31.209Z,17.09
2023-05-10T12:04:01.106Z,16.91
2023-05-10T12:06:30.404Z,16.85
2023-05-10T12:08:57.928Z,15.93
2023-05-10T12:11:29.564Z,15.78
2023-05-10T12:13:57.978Z,15.93
2023-05-10T12:16:27.261Z,15.86
2023-05-10T12:18:58.093Z,15.69
2023-05-10T12:21:26.446Z,15.58
2023-05-10T12:23:55.268Z,15.87
2023-05-10T12:26:23.919Z,15.55
2023-05-10T12:28:52.708Z,16.63
2023-05-10T12:31:20.375Z,14.75
2023-05-10T12:33:50.190Z,14.65
2023-05-10T12:36:18.911Z,14.75
2023-05-10T12:38:48.901Z,14.87
2023-05-10T12:41:18.951Z,15.40
2023-05-10T12:43:47.410Z,16.33
2023-05-10T12:46:18.639Z,16.49
2023-05-10T12:48:47.237Z,16.22
2023-05-10T12:51:17.998Z,15.20
2023-05-10T12:53:49.258Z,15.19
2023-05-10T12:56:17.127Z,15.19
2023-05-10T12:58:48.888Z,15.18
2023-05-10T13:01:17.970Z,15.90
2023-05-10T13:03:45.518Z,15.06
2023-05-10T13:06:14.376Z,15.79
2023-05-10T13:08:41.920Z,15.65
2023-05-10T13:11:09.439Z,15.70
2023-05-10T13:13:36.947Z,16.45
2023-05-10T13:16:04.936Z,17.09
2023-05-10T13:18:33.956Z,16.01
2023-05-10T13:21:01.509Z,15.53
2023-05-10T13:23:29.007Z,15.97
2023-05-10T13:25:56.568Z,16.47
2023-05-10T13:28:24.074Z,15.38
2023-05-10T13:30:51.582Z,15.32
2023-05-10T13:33:19.098Z,16.09
2023-05-10T13:35:47.975Z,15.84
2023-05-10T13:38:15.544Z,15.29
2023-05-10T13:40:43.095Z,15.40
2023-05-10T13:43:10.600Z,17.13
2023-05-10T13:45:38.102Z,17.86
2023-05-10T13:48:06.239Z,18.06
2023-05-10T13:50:33.774Z,16.76
2023-05-10T13:53:02.619Z,15.91
2023-05-10T13:55:30.149Z,16.11
2023-05-10T13:57:57.641Z,16.60
2023-05-10T14:00:25.340Z,17.46
2023-05-10T14:02:52.888Z,16.48
2023-05-10T14:05:25.461Z,15.89
2023-05-10T14:07:54.635Z,17.94
2023-05-10T14:10:23.448Z,16.05
2023-05-10T14:12:51.812Z,16.24
2023-05-10T14:15:19.420Z,16.64
2023-05-10T14:17:47.080Z,17.10
2023-05-10T14:20:14.633Z,16.93
2023-05-10T14:22:42.211Z,16.83
2023-05-10T14:25:10.297Z,16.64
2023-05-10T14:27:39.110Z,16.38
2023-05-10T14:30:07.951Z,17.68
2023-05-10T14:32:37.506Z,16.47
2023-05-10T14:35:07.034Z,18.88
2023-05-10T14:37:34.624Z,18.39
2023-05-10T14:40:02.181Z,19.63
2023-05-10T14:42:29.766Z,16.92
2023-05-10T14:44:58.829Z,17.57
2023-05-10T14:47:26.412Z,16.57
2023-05-10T14:49:53.906Z,16.62
2023-05-10T14:52:21.415Z,16.99
2023-05-10T14:54:48.978Z,18.35
2023-05-10T14:57:16.473Z,18.53
2023-05-10T14:59:43.980Z,17.85
2023-05-10T15:02:14.478Z,17.06
2023-05-10T15:04:42.396Z,18.54
2023-05-10T15:07:10.255Z,18.98
2023-05-10T15:09:37.733Z,17.75
2023-05-10T15:12:05.350Z,18.25
2023-05-10T15:14:33.879Z,17.83
2023-05-10T15:17:01.539Z,16.89
2023-05-10T15:19:30.721Z,18.12
2023-05-10T15:21:58.249Z,17.72
2023-05-10T15:24:25.755Z,17.85
2023-05-10T15:26:53.287Z,16.58
2023-05-10T15:29:21.706Z,15.91
2023-05-10T15:31:49.672Z,17.57
2023-05-10T15:34:17.596Z,17.71
2023-05-10T15:36:46.733Z,17.78
2023-05-10T15:39:14.226Z,18.91
2023-05-10T15:41:41.716Z,18.56
2023-05-10T15:44:09.212Z,18.93
2023-05-10T15:46:38.738Z,19.41
2023-05-10T15:49:06.785Z,19.15
2023-05-10T15:51:36.521Z,18.61
2023-05-10T15:54:08.203Z,18.36
2023-05-10T15:56:36.126Z,19.07
2023-05-10T15:59:03.744Z,18.65
2023-05-10T16:01:32.439Z,17.24
2023-05-10T16:04:00.195Z,18.78
2023-05-10T16:06:27.823Z,17.32
2023-05-10T16:08:55.440Z,18.24
2023-05-10T16:11:24.293Z,17.76
2023-05-10T16:13:52.978Z,18.55
2023-05-10T16:16:20.583Z,18.74
2023-05-10T16:18:48.357Z,18.30
2023-05-10T16:21:15.882Z,18.81
2023-05-10T16:23:46.333Z,17.91
2023-05-10T16:26:13.857Z,17.36
2023-05-10T16:28:42.727Z,18.77
2023-05-10T16:31:10.311Z,18.85
2023-05-10T16:33:38.022Z,17.95
2023-05-10T16:36:06.574Z,17.83
2023-05-10T16:38:34.121Z,18.41
2023-05-10T16:41:03.532Z,17.48
2023-05-10T16:43:31.620Z,18.33
2023-05-10T16:46:00.903Z,18.91
2023-05-10T16:48:28.436Z,18.79
2023-05-10T16:50:55.931Z,18.91
2023-05-10T16:53:23.407Z,19.15
2023-05-10T16:55:51.057Z,18.23
2023-05-10T16:58:18.570Z,18.76
2023-05-10T17:00:46.674Z,18.63
2023-05-10T17:03:15.495Z,18.24
2023-05-10T17:05:43.216Z,18.59
2023-05-10T17:08:10.760Z,18.87
2023-05-10T17:10:40.601Z,18.22
2023-05-10T17:13:10.062Z,18.48
2023-05-10T17:15:38.217Z,17.53
2023-05-10T17:18:06.860Z,18.16
2023-05-10T17:20:35.877Z,18.09
2023-05-10T17:23:03.497Z,18.08
2023-05-10T17:25:31.020Z,18.25
2023-05-10T17:27:58.524Z,18.50
2023-05-10T17:30:28.245Z,18.33
2023-05-10T17:32:56.291Z,18.59
2023-05-10T17:35:23.964Z,18.02
2023-05-10T17:37:52.854Z,17.68
2023-05-10T17:40:20.671Z,17.25
2023-05-10T17:42:48.211Z,18.06
2023-05-10T17:45:16.702Z,17.71
2023-05-10T17:47:44.472Z,18.24
2023-05-10T17:50:12.139Z,17.66
2023-05-10T17:52:39.622Z,16.87
2023-05-10T17:55:09.617Z,17.07
2023-05-10T17:57:38.856Z,16.81
2023-05-10T18:00:08.751Z,16.93
2023-05-10T18:02:36.528Z,16.74
2023-05-10T18:05:04.207Z,16.39
2023-05-10T18:07:31.893Z,16.54
2023-05-10T18:10:01.050Z,16.95
2023-05-10T18:12:30.054Z,16.75
2023-05-10T18:14:57.700Z,16.86
2023-05-10T18:17:25.232Z,16.70
2023-05-10T18:19:53.414Z,16.72
2023-05-10T18:22:21.050Z,15.88
2023-05-10T18:24:48.563Z,16.13
2023-05-10T18:27:16.165Z,16.30
2023-05-10T18:29:44.982Z,16.15
2023-05-10T18:32:12.460Z,15.69
2023-05-10T18:34:39.951Z,16.16
2023-05-10T18:37:08.086Z,16.35
2023-05-10T18:39:35.858Z,15.46
2023-05-10T18:42:03.852Z,15.54
2023-05-10T18:44:31.423Z,16.37
2023-05-10T18:47:00.262Z,16.23
2023-05-10T18:49:29.332Z,16.07
2023-05-10T18:51:56.893Z,15.34
2023-05-10T18:54:24.364Z,15.41
2023-05-10T18:56:51.851Z,15.05
2023-05-10T18:59:19.337Z,15.39
2023-05-10T19:01:47.495Z,15.47
2023-05-10T19:04:17.760Z,15.13
2023-05-10T19:06:45.285Z,14.97
2023-05-10T19:09:12.786Z,14.75
2023-05-10T19:11:40.328Z,15.17
2023-05-10T19:14:07.808Z,14.88
2023-05-10T19:16:35.598Z,14.46
2023-05-10T19:19:03.151Z,14.27
2023-05-10T19:21:32.939Z,14.09
2023-05-10T19:24:01.413Z,14.52
2023-05-10T19:26:29.142Z,14.55
2023-05-10T19:28:57.597Z,14.69
2023-05-10T19:31:25.161Z,14.44
2023-05-10T19:33:52.984Z,13.64
2023-05-10T19:36:20.702Z,13.68
2023-05-10T19:38:49.889Z,13.51
2023-05-10T19:41:17.438Z,13.72
2023-05-10T19:43:44.945Z,13.39
2023-05-10T19:46:15.643Z,13.45
2023-05-10T19:48:45.489Z,13.67
2023-05-10T19:51:14.007Z,13.39
2023-05-10T19:53:44.691Z,13.85
2023-05-10T19:56:14.283Z,14.13
2023-05-10T19:58:43.328Z,13.83
2023-05-10T20:01:10.978Z,13.29
2023-05-10T20:03:38.855Z,13.29
2023-05-10T20:06:06.463Z,13.12
2023-05-10T20:08:33.973Z,12.94
2023-05-10T20:11:03.594Z,13.13
2023-05-10T20:13:33.374Z,13.63
2023-05-10T20:16:02.240Z,13.40
2023-05-10T20:18:29.763Z,13.53
2023-05-10T20:20:59.952Z,13.18
2023-05-10T20:23:27.796Z,13.13
2023-05-10T20:25:55.684Z,13.12
2023-05-10T20:28:24.016Z,13.32
2023-05-10T20:30:54.243Z,13.52
2023-05-10T20:33:22.083Z,13.86
2023-05-10T20:35:50.099Z,13.33
2023-05-10T20:38:18.057Z,13.22
2023-05-10T20:40:46.567Z,12.95
2023-05-10T20:43:14.146Z,12.51
2023-05-10T20:45:41.641Z,12.46
2023-05-10T20:48:10.543Z,12.41
2023-05-10T20:50:38.054Z,12.36
2023-05-10T20:53:05.664Z,12.31
2023-05-10T20:55:33.364Z,12.38
2023-05-10T20:58:03.446Z,12.60
2023-05-10T21:00:32.358Z,12.48
2023-05-10T21:02:59.942Z,12.36
2023-05-10T21:05:28.874Z,12.41
2023-05-10T21:07:56.399Z,12.79
2023-05-10T21:10:25.050Z,12.55
2023-05-10T21:12:52.938Z,12.40
2023-05-10T21:15:22.476Z,12.37
2023-05-10T21:17:49.994Z,12.27
2023-05-10T21:20:17.771Z,12.38
2023-05-10T21:22:46.782Z,13.07
2023-05-10T21:25:14.304Z,12.49
2023-05-10T21:27:41.941Z,12.27
2023-05-10T21:30:10.728Z,12.20
2023-05-10T21:32:38.262Z,12.28
2023-05-10T21:35:06.583Z,12.19
2023-05-10T21:37:34.179Z,12.36
2023-05-10T21:40:04.491Z,12.34
2023-05-10T21:42:32.396Z,12.40
2023-05-10T21:44:59.883Z,12.52
2023-05-10T21:47:27.528Z,12.52
2023-05-10T21:49:55.112Z,12.52
2023-05-10T21:52:22.691Z,12.82
2023-05-10T21:54:50.179Z,12.77
2023-05-10T21:57:19.643Z,12.50
2023-05-10T21:59:47.192Z,12.67
2023-05-10T22:02:14.734Z,12.31
2023-05-10T22:04:42.295Z,12.10
2023-05-10T22:07:09.806Z,12.10
2023-05-10T22:09:37.317Z,12.27
2023-05-10T22:12:05.242Z,12.27
2023-05-10T22:14:35.313Z,12.44
2023-05-10T22:17:02.953Z,12.32
2023-05-10T22:19:30.584Z,12.12
2023-05-10T22:21:58.055Z,12.21
2023-05-10T22:24:25.648Z,12.15
2023-05-10T22:26:54.941Z,12.11
2023-05-10T22:29:22.536Z,12.16
2023-05-10T22:31:51.347Z,12.13
2023-05-10T22:34:18.842Z,12.05
2023-05-10T22:36:46.665Z,11.90
2023-05-10T22:39:14.152Z,11.93
2023-05-10T22:41:41.697Z,11.81
2023-05-10T22:44:09.747Z,11.78
2023-05-10T22:46:37.443Z,11.77
2023-05-10T22:49:06.296Z,11.80
2023-05-10T22:51:33.829Z,12.00
2023-05-10T22:54:01.334Z,12.36
2023-05-10T22:56:28.867Z,12.27
2023-05-10T22:58:57.729Z,12.01
2023-05-10T23:01:25.361Z,11.91
2023-05-10T23:03:52.868Z,11.71
2023-05-10T23:06:21.699Z,11.67
2023-05-10T23:08:49.271Z,11.77
2023-05-10T23:11:17.107Z,11.78
2023-05-10T23:13:44.738Z,11.86
2023-05-10T23:16:12.474Z,12.03
2023-05-10T23:18:40.594Z,12.02
2023-05-10T23:21:08.137Z,11.87
2023-05-10T23:23:37.359Z,11.80
2023-05-10T23:26:05.218Z,11.78
2023-05-10T23:28:32.774Z,11.74
2023-05-10T23:31:00.636Z,11.72
2023-05-10T23:33:28.506Z,11.76
2023-05-10T23:35:56.108Z,11.73
2023-05-10T23:38:23.626Z,11.70
2023-05-10T23:40:52.485Z,11.84
2023-05-10T23:43:20.828Z,12.09
2023-05-10T23:45:54.932Z,12.33
2023-05-10T23:48:22.572Z,12.21
2023-05-10T23:50:50.200Z,12.31
2023-05-10T23:53:17.703Z,12.47
2023-05-10T23:55:45.468Z,12.49
2023-05-10T23:58:14.313Z,12.21
